KPVB

Details ICAO KPVB
Name Platteville Muni
Region United States
Timezone America/Chicago (UTC-5.0)
Plans Departing 4
Arriving 3
Stats Elevation 1,024 ft / 312 m (AMSL)
Location 42.689269° -90.444421°
Runways 2
Magnetic Variation 1.838° W
Sunrise 2018-05-20 10:36:04 UTC / 2018-05-20 05:36:04 Local
Sunset 2018-05-21 01:23:25 UTC / 2018-05-20 20:23:25 Local
Advertisement - Login to hide

Runways

ID Width Length Bearing (true) Bearing (mag) Surface Threshold Offset Overrun Length
07 75 ft / 23 m 3,594 ft / 1,095 m 68.07° 69.91° Asphalt 0 ft / 0 m 0 ft / 0 m
15 75 ft / 23 m 4,000 ft / 1,219 m 144.91° 146.75° Asphalt 0 ft / 0 m 0 ft / 0 m
25 75 ft / 23 m 3,594 ft / 1,095 m 248.07° 249.91° Asphalt 0 ft / 0 m 0 ft / 0 m
33 75 ft / 23 m 4,000 ft / 1,219 m 324.92° 326.76° Asphalt 0 ft / 0 m 0 ft / 0 m

Map

Weather


0- 5 10 15 20 25 30 35+ Temperature / ° C

Clouds and Precipitation
Forecast for 2018-05-21 06:00 UTC. Updated 9 minutes ago

Ground ~20,000 ft ~40,000 ft Winds

METAR

KPVB 210315Z AUTO 09008KT 10SM OVC014 13/13 A3017 RMK AO1 T01320129

TAF

Not found

Frequencies

Unicom 122.70 MHz CTAF/UNICOM
Warning: Do not use this data for real-world aviation or navigation. No guarantee of current accuracy is given.